createdAt,value
2024-02-23T00:01:08.091Z,10.73
2024-02-23T00:03:38.519Z,10.86
2024-02-23T00:06:05.604Z,10.91
2024-02-23T00:08:32.510Z,10.92
2024-02-23T00:10:59.463Z,10.95
2024-02-23T00:13:26.183Z,10.95
2024-02-23T00:15:53.248Z,10.97
2024-02-23T00:18:20.193Z,11.12
2024-02-23T00:20:48.136Z,11.09
2024-02-23T00:23:15.108Z,11.05
2024-02-23T00:25:42.162Z,10.96
2024-02-23T00:28:09.872Z,11.03
2024-02-23T00:30:37.388Z,11.17
2024-02-23T00:33:04.596Z,11.06
2024-02-23T00:35:31.627Z,11.02
2024-02-23T00:37:58.486Z,11.11
2024-02-23T00:40:25.340Z,11.09
2024-02-23T00:42:52.112Z,10.86
2024-02-23T00:45:18.970Z,10.85
2024-02-23T00:47:48.235Z,10.58
2024-02-23T00:50:15.984Z,10.34
2024-02-23T00:52:42.726Z,10.49
2024-02-23T00:55:10.055Z,10.49
2024-02-23T00:57:37.986Z,10.44
2024-02-23T01:00:06.534Z,10.41
2024-02-23T01:02:34.595Z,10.27
2024-02-23T01:05:01.626Z,10.05
2024-02-23T01:07:29.051Z,10.07
2024-02-23T01:09:56.119Z,10.24
2024-02-23T01:12:22.863Z,10.41
2024-02-23T01:14:49.939Z,10.50
2024-02-23T01:17:17.196Z,10.49
2024-02-23T01:19:44.926Z,10.63
2024-02-23T01:22:12.039Z,10.68
2024-02-23T01:24:38.929Z,10.58
2024-02-23T01:27:05.750Z,10.60
2024-02-23T01:29:32.687Z,10.44
2024-02-23T01:32:00.263Z,10.43
2024-02-23T01:34:27.109Z,10.41
2024-02-23T01:36:54.053Z,10.46
2024-02-23T01:39:20.786Z,10.52
2024-02-23T01:41:47.619Z,10.59
2024-02-23T01:44:14.899Z,10.72
2024-02-23T01:46:41.660Z,10.80
2024-02-23T01:49:09.993Z,10.64
2024-02-23T01:51:37.042Z,10.54
2024-02-23T01:54:04.923Z,10.46
2024-02-23T01:56:33.887Z,10.41
2024-02-23T01:59:01.398Z,10.30
2024-02-23T02:01:28.634Z,10.30
2024-02-23T02:03:55.560Z,10.31
2024-02-23T02:06:22.478Z,10.45
2024-02-23T02:08:49.236Z,10.42
2024-02-23T02:11:16.520Z,10.40
2024-02-23T02:13:43.404Z,10.44
2024-02-23T02:16:10.733Z,10.47
2024-02-23T02:18:37.401Z,10.50
2024-02-23T02:21:04.607Z,10.52
2024-02-23T02:23:31.469Z,10.58
2024-02-23T02:25:59.767Z,10.58
2024-02-23T02:28:26.881Z,10.53
2024-02-23T02:30:54.116Z,10.58
2024-02-23T02:33:21.626Z,10.52
2024-02-23T02:35:48.947Z,10.47
2024-02-23T02:38:15.816Z,10.45
2024-02-23T02:40:42.931Z,10.34
2024-02-23T02:43:09.920Z,10.37
2024-02-23T02:45:36.550Z,10.38
2024-02-23T02:48:04.386Z,10.39
2024-02-23T02:50:32.626Z,10.42
2024-02-23T02:52:59.528Z,10.52
2024-02-23T02:55:26.411Z,10.48
2024-02-23T02:57:53.107Z,10.49
2024-02-23T03:00:19.882Z,10.37
2024-02-23T03:02:46.675Z,10.21
2024-02-23T03:05:13.394Z,10.15
2024-02-23T03:07:40.435Z,10.05
2024-02-23T03:10:08.281Z,10.19
2024-02-23T03:12:35.112Z,10.33
2024-02-23T03:15:04.262Z,10.40
2024-02-23T03:17:31.333Z,10.36
2024-02-23T03:19:59.252Z,10.39
2024-02-23T03:22:29.129Z,10.22
2024-02-23T03:24:55.899Z,10.26
2024-02-23T03:27:29.819Z,10.26
2024-02-23T03:29:56.610Z,10.21
2024-02-23T03:32:23.340Z,10.00
2024-02-23T03:34:50.090Z,9.92
2024-02-23T03:37:16.874Z,9.91
2024-02-23T03:39:43.581Z,10.03
2024-02-23T03:42:10.793Z,9.92
2024-02-23T03:44:37.533Z,9.90
2024-02-23T03:47:04.354Z,9.83
2024-02-23T03:49:31.327Z,9.95
2024-02-23T03:51:58.132Z,9.95
2024-02-23T03:54:24.853Z,9.94
2024-02-23T03:56:51.632Z,9.64
2024-02-23T03:59:18.410Z,9.40
2024-02-23T04:01:45.760Z,9.50
2024-02-23T04:04:12.538Z,9.75
2024-02-23T04:06:39.395Z,9.77
2024-02-23T04:09:06.666Z,9.84
2024-02-23T04:11:34.240Z,9.96
2024-02-23T04:14:02.072Z,10.12
2024-02-23T04:16:29.144Z,10.15
2024-02-23T04:18:56.054Z,10.18
2024-02-23T04:21:22.988Z,9.98
2024-02-23T04:23:49.817Z,9.97
2024-02-23T04:26:16.592Z,9.98
2024-02-23T04:28:43.658Z,10.05
2024-02-23T04:31:11.245Z,9.98
2024-02-23T04:33:40.975Z,9.94
2024-02-23T04:36:11.143Z,9.63
2024-02-23T04:38:38.053Z,9.68
2024-02-23T04:41:06.662Z,9.75
2024-02-23T04:43:33.419Z,9.75
2024-02-23T04:46:00.186Z,9.75
2024-02-23T04:48:27.874Z,9.59
2024-02-23T04:50:55.756Z,9.57
2024-02-23T04:53:22.567Z,9.49
2024-02-23T04:55:49.507Z,9.53
2024-02-23T04:58:16.364Z,9.52
2024-02-23T05:00:43.993Z,9.55
2024-02-23T05:03:12.841Z,9.32
2024-02-23T05:05:40.316Z,8.92
2024-02-23T05:08:07.305Z,9.02
2024-02-23T05:10:34.018Z,9.09
2024-02-23T05:13:00.790Z,9.11
2024-02-23T05:15:27.543Z,8.84
2024-02-23T05:17:54.276Z,8.70
2024-02-23T05:20:21.062Z,8.69
2024-02-23T05:22:47.766Z,8.68
2024-02-23T05:25:14.464Z,8.42
2024-02-23T05:27:41.157Z,8.21
2024-02-23T05:30:08.348Z,8.15
2024-02-23T05:32:35.357Z,8.30
2024-02-23T05:35:02.244Z,8.11
2024-02-23T05:37:28.902Z,8.08
2024-02-23T05:39:55.695Z,8.05
2024-02-23T05:42:22.658Z,8.04
2024-02-23T05:44:52.289Z,8.01
2024-02-23T05:47:19.150Z,7.96
2024-02-23T05:49:45.888Z,8.24
2024-02-23T05:52:12.638Z,8.28
2024-02-23T05:54:39.367Z,8.46
2024-02-23T05:57:06.185Z,8.56
2024-02-23T05:59:33.458Z,8.49
2024-02-23T06:02:00.313Z,8.67
2024-02-23T06:04:28.460Z,8.72
2024-02-23T06:06:55.396Z,8.57
2024-02-23T06:09:22.728Z,8.55
2024-02-23T06:11:49.750Z,8.45
2024-02-23T06:14:16.685Z,8.44
2024-02-23T06:16:43.545Z,8.46
2024-02-23T06:19:10.494Z,8.52
2024-02-23T06:21:37.930Z,8.72
2024-02-23T06:24:06.215Z,8.68
2024-02-23T06:26:33.420Z,8.57
2024-02-23T06:29:00.311Z,8.51
2024-02-23T06:31:28.169Z,8.60
2024-02-23T06:33:55.119Z,8.78
2024-02-23T06:36:21.940Z,8.77
2024-02-23T06:38:49.008Z,8.69
2024-02-23T06:41:16.420Z,8.49
2024-02-23T06:43:43.310Z,8.40
2024-02-23T06:46:10.828Z,8.40
2024-02-23T06:48:38.783Z,8.37
2024-02-23T06:51:11.609Z,8.50
2024-02-23T06:53:39.740Z,8.54
2024-02-23T06:56:06.977Z,8.29
2024-02-23T06:58:33.741Z,8.13
2024-02-23T07:01:01.553Z,8.27
2024-02-23T07:03:28.367Z,8.35
2024-02-23T07:05:55.286Z,8.33
2024-02-23T07:08:22.018Z,8.22
2024-02-23T07:10:48.790Z,8.07
2024-02-23T07:13:15.785Z,7.90
2024-02-23T07:15:42.532Z,7.90
2024-02-23T07:18:10.193Z,7.82
2024-02-23T07:20:40.335Z,7.75
2024-02-23T07:23:07.973Z,7.73
2024-02-23T07:25:34.780Z,7.72
2024-02-23T07:28:01.488Z,7.75
2024-02-23T07:30:28.170Z,7.88
2024-02-23T07:32:55.064Z,7.89
2024-02-23T07:35:22.185Z,7.94
2024-02-23T07:37:49.054Z,7.92
2024-02-23T07:40:18.296Z,8.03
2024-02-23T07:42:47.377Z,8.11
2024-02-23T07:45:14.361Z,8.09
2024-02-23T07:47:41.261Z,8.08
2024-02-23T07:50:09.161Z,8.11
2024-02-23T07:52:35.987Z,7.98
2024-02-23T07:55:04.354Z,7.99
2024-02-23T07:57:32.726Z,8.12
2024-02-23T07:59:59.730Z,8.34
2024-02-23T08:02:26.561Z,8.65
2024-02-23T08:04:53.874Z,8.64
2024-02-23T08:07:21.098Z,8.59
2024-02-23T08:09:47.909Z,8.57
2024-02-23T08:12:15.552Z,8.38
2024-02-23T08:14:43.576Z,8.40
2024-02-23T08:17:12.172Z,8.63
2024-02-23T08:19:39.060Z,8.72
2024-02-23T08:22:05.890Z,8.84
2024-02-23T08:24:32.848Z,9.09
2024-02-23T08:26:59.882Z,9.22
2024-02-23T08:29:27.412Z,9.29
2024-02-23T08:31:54.326Z,9.24
2024-02-23T08:34:21.114Z,9.13
2024-02-23T08:36:47.875Z,9.08
2024-02-23T08:39:14.641Z,9.16
2024-02-23T08:41:41.489Z,9.36
2024-02-23T08:44:08.260Z,9.53
2024-02-23T08:46:35.277Z,9.38
2024-02-23T08:49:02.102Z,9.60
2024-02-23T08:51:28.791Z,9.69
2024-02-23T08:53:57.942Z,9.79
2024-02-23T08:56:26.482Z,9.77
2024-02-23T08:58:53.388Z,9.76
2024-02-23T09:01:21.195Z,9.88
2024-02-23T09:03:47.983Z,9.94
2024-02-23T09:06:15.064Z,10.00
2024-02-23T09:08:42.648Z,9.93
2024-02-23T09:11:09.838Z,9.72
2024-02-23T09:13:36.623Z,9.72
2024-02-23T09:16:04.141Z,9.83
2024-02-23T09:18:31.463Z,9.96
2024-02-23T09:20:58.317Z,10.08
2024-02-23T09:23:25.116Z,10.25
2024-02-23T09:25:52.214Z,10.34
2024-02-23T09:28:18.986Z,10.41
2024-02-23T09:30:45.855Z,10.36
2024-02-23T09:33:12.673Z,10.37
2024-02-23T09:35:39.785Z,10.44
2024-02-23T09:38:06.646Z,10.30
2024-02-23T09:40:33.487Z,9.93
2024-02-23T09:43:00.594Z,9.77
2024-02-23T09:45:28.214Z,9.77
2024-02-23T09:47:57.356Z,9.86
2024-02-23T09:50:25.021Z,10.00
2024-02-23T09:52:52.501Z,10.22
2024-02-23T09:55:20.262Z,10.12
2024-02-23T09:57:49.513Z,10.09
2024-02-23T10:00:18.604Z,10.18
2024-02-23T10:02:46.433Z,10.17
2024-02-23T10:05:14.546Z,10.35
2024-02-23T10:07:41.977Z,10.43
2024-02-23T10:10:10.259Z,10.38
2024-02-23T10:12:37.219Z,10.42
2024-02-23T10:15:07.478Z,10.28
2024-02-23T10:17:36.562Z,10.03
2024-02-23T10:20:05.951Z,9.84
2024-02-23T10:22:33.121Z,9.94
2024-02-23T10:25:00.915Z,9.88
2024-02-23T10:27:27.846Z,10.06
2024-02-23T10:29:55.441Z,10.11
2024-02-23T10:32:25.512Z,10.25
2024-02-23T10:34:54.319Z,9.97
2024-02-23T10:37:23.993Z,9.75
2024-02-23T10:39:58.471Z,9.63
2024-02-23T10:42:25.869Z,9.81
2024-02-23T10:44:54.244Z,10.06
2024-02-23T10:47:22.461Z,10.09
2024-02-23T10:49:49.664Z,9.96
2024-02-23T10:52:18.417Z,10.26
2024-02-23T10:54:47.649Z,10.48
2024-02-23T10:57:16.544Z,10.70
2024-02-23T10:59:47.877Z,10.82
2024-02-23T11:02:19.195Z,11.11
2024-02-23T11:04:52.158Z,11.30
2024-02-23T11:07:22.644Z,11.19
2024-02-23T11:09:59.674Z,11.29
2024-02-23T11:12:28.121Z,11.51
2024-02-23T11:14:59.891Z,11.68
2024-02-23T11:17:31.625Z,11.78
2024-02-23T11:19:58.889Z,11.71
2024-02-23T11:22:37.801Z,11.89
2024-02-23T11:25:11.404Z,11.80
2024-02-23T11:27:41.749Z,11.76
2024-02-23T11:30:13.904Z,11.91
2024-02-23T11:32:43.081Z,11.79
2024-02-23T11:35:12.655Z,11.79
2024-02-23T11:38:05.683Z,11.84
2024-02-23T11:40:32.606Z,11.77
2024-02-23T11:43:03.052Z,11.83
2024-02-23T11:45:30.356Z,12.00
2024-02-23T11:47:57.305Z,12.35
2024-02-23T11:50:24.236Z,12.48
2024-02-23T11:52:52.515Z,12.49
2024-02-23T11:55:25.391Z,12.66
2024-02-23T11:58:01.063Z,12.55
2024-02-23T12:00:39.040Z,12.66
2024-02-23T12:03:06.841Z,12.77
2024-02-23T12:05:33.580Z,12.31
2024-02-23T12:08:00.632Z,12.31
2024-02-23T12:10:27.753Z,12.05
2024-02-23T12:12:55.460Z,12.25
2024-02-23T12:15:22.215Z,12.26
2024-02-23T12:17:50.514Z,12.36
2024-02-23T12:20:18.108Z,12.45
2024-02-23T12:22:44.979Z,12.39
2024-02-23T12:25:14.372Z,13.02
2024-02-23T12:27:41.526Z,13.23
2024-02-23T12:30:15.813Z,13.61
2024-02-23T12:32:42.851Z,14.26
2024-02-23T12:35:13.743Z,15.13
2024-02-23T12:37:44.591Z,15.75
2024-02-23T12:40:12.363Z,16.24
2024-02-23T12:42:39.316Z,15.45
2024-02-23T12:45:06.289Z,15.91
2024-02-23T12:47:33.055Z,16.68
2024-02-23T12:49:59.863Z,17.20
2024-02-23T12:52:27.024Z,17.61
2024-02-23T12:54:53.706Z,18.21
2024-02-23T12:57:20.483Z,18.96
2024-02-23T12:59:47.300Z,19.81
2024-02-23T13:02:14.084Z,19.73
2024-02-23T13:04:41.690Z,20.04
2024-02-23T13:07:08.519Z,20.09
2024-02-23T13:09:35.351Z,19.41
2024-02-23T13:12:02.171Z,19.52
2024-02-23T13:14:29.006Z,20.26
2024-02-23T13:16:55.949Z,21.02
2024-02-23T13:19:22.924Z,20.99
2024-02-23T13:21:49.762Z,20.91
2024-02-23T13:24:17.005Z,19.74
2024-02-23T13:26:43.790Z,18.77
2024-02-23T13:29:10.843Z,18.49
2024-02-23T13:31:39.665Z,18.44
2024-02-23T13:34:08.398Z,19.47
2024-02-23T13:36:35.221Z,20.55
2024-02-23T13:39:01.924Z,22.01
2024-02-23T13:41:28.904Z,21.91
2024-02-23T13:43:56.578Z,21.86
2024-02-23T13:46:23.304Z,23.22
2024-02-23T13:49:07.105Z,23.35
2024-02-23T13:51:34.876Z,23.17
2024-02-23T13:54:02.145Z,23.44
2024-02-23T13:56:29.081Z,23.79
2024-02-23T13:58:56.101Z,23.74
2024-02-23T14:01:23.005Z,21.76
2024-02-23T14:03:49.904Z,20.67
2024-02-23T14:06:16.870Z,19.33
2024-02-23T14:08:45.506Z,18.50
2024-02-23T14:11:12.434Z,17.72
2024-02-23T14:13:39.417Z,17.40
2024-02-23T14:16:06.452Z,16.87
2024-02-23T14:18:38.424Z,16.35
2024-02-23T14:21:05.934Z,15.80
2024-02-23T14:23:32.904Z,15.85
2024-02-23T14:25:59.908Z,16.12
2024-02-23T14:28:26.870Z,16.69
2024-02-23T14:30:54.888Z,17.95
2024-02-23T14:33:22.183Z,17.74
2024-02-23T14:35:50.870Z,16.82
2024-02-23T14:38:18.164Z,17.08
2024-02-23T14:40:45.144Z,16.60
2024-02-23T14:43:12.229Z,16.59
2024-02-23T14:45:39.198Z,16.28
2024-02-23T14:48:06.691Z,16.34
2024-02-23T14:50:33.759Z,16.30
2024-02-23T14:53:01.178Z,16.35
2024-02-23T14:55:27.995Z,16.12
2024-02-23T14:57:55.320Z,16.62
2024-02-23T15:00:22.265Z,16.51
2024-02-23T15:02:49.069Z,16.46
2024-02-23T15:05:16.404Z,15.85
2024-02-23T15:07:43.214Z,15.41
2024-02-23T15:10:10.557Z,15.24
2024-02-23T15:12:37.667Z,14.93
2024-02-23T15:15:05.318Z,14.79
2024-02-23T15:17:32.256Z,14.40
2024-02-23T15:19:59.192Z,14.53
2024-02-23T15:22:27.036Z,14.42
2024-02-23T15:24:53.792Z,14.18
2024-02-23T15:27:20.585Z,14.21
2024-02-23T15:29:48.311Z,14.21
2024-02-23T15:32:18.713Z,14.12
2024-02-23T15:34:45.493Z,13.81
2024-02-23T15:37:12.168Z,13.82
2024-02-23T15:39:39.801Z,13.88
2024-02-23T15:42:06.561Z,13.72
2024-02-23T15:44:33.541Z,13.53
2024-02-23T15:47:00.435Z,13.19
2024-02-23T15:49:43.254Z,13.08
2024-02-23T15:52:14.046Z,13.15
2024-02-23T15:54:40.861Z,13.02
2024-02-23T15:57:09.529Z,12.95
2024-02-23T15:59:36.609Z,12.89
2024-02-23T16:02:04.049Z,12.95
2024-02-23T16:04:31.015Z,12.79
2024-02-23T16:06:57.866Z,12.74
2024-02-23T16:09:24.567Z,12.49
2024-02-23T16:11:51.446Z,12.47
2024-02-23T16:14:18.866Z,12.45
2024-02-23T16:16:45.700Z,12.25
2024-02-23T16:19:13.336Z,12.24
2024-02-23T16:21:42.791Z,12.20
2024-02-23T16:24:09.558Z,12.14
2024-02-23T16:26:39.329Z,12.18
2024-02-23T16:29:07.802Z,12.25
2024-02-23T16:31:36.263Z,12.19
2024-02-23T16:34:02.952Z,12.40
2024-02-23T16:36:29.842Z,12.60
2024-02-23T16:38:56.701Z,12.42
2024-02-23T16:41:24.198Z,12.21
2024-02-23T16:43:51.316Z,12.14
2024-02-23T16:46:18.195Z,11.92
2024-02-23T16:48:44.931Z,11.57
2024-02-23T16:51:11.712Z,11.43
2024-02-23T16:53:38.524Z,11.22
2024-02-23T16:56:05.817Z,11.22
2024-02-23T16:58:37.978Z,11.24
2024-02-23T17:01:07.040Z,11.06
2024-02-23T17:03:34.482Z,11.14
2024-02-23T17:06:07.486Z,11.04
2024-02-23T17:08:34.392Z,10.88
2024-02-23T17:11:01.348Z,10.68
2024-02-23T17:13:28.252Z,10.81
2024-02-23T17:15:55.459Z,10.64
2024-02-23T17:18:25.432Z,10.45
2024-02-23T17:20:52.770Z,10.43
2024-02-23T17:23:19.644Z,10.39
2024-02-23T17:25:46.423Z,10.47
2024-02-23T17:28:16.036Z,10.70
2024-02-23T17:30:43.116Z,10.74
2024-02-23T17:33:10.270Z,10.56
2024-02-23T17:35:37.175Z,10.29
2024-02-23T17:38:04.696Z,10.25
2024-02-23T17:40:31.554Z,10.17
2024-02-23T17:42:58.369Z,9.98
2024-02-23T17:45:25.110Z,10.09
2024-02-23T17:47:52.218Z,10.06
2024-02-23T17:50:19.160Z,9.76
2024-02-23T17:52:45.973Z,9.61
2024-02-23T17:55:12.656Z,9.43
2024-02-23T17:57:39.386Z,9.29
2024-02-23T18:00:06.840Z,9.34
2024-02-23T18:02:33.568Z,9.29
2024-02-23T18:05:00.353Z,9.39
2024-02-23T18:07:27.162Z,9.32
2024-02-23T18:09:54.002Z,9.17
2024-02-23T18:12:20.823Z,8.96
2024-02-23T18:14:47.542Z,8.80
2024-02-23T18:17:14.345Z,8.66
2024-02-23T18:19:43.426Z,8.69
2024-02-23T18:22:10.957Z,8.74
2024-02-23T18:24:37.633Z,8.74
2024-02-23T18:27:04.620Z,8.97
2024-02-23T18:29:31.363Z,8.90
2024-02-23T18:31:58.298Z,8.95
2024-02-23T18:34:25.161Z,8.84
2024-02-23T18:36:51.953Z,8.65
2024-02-23T18:39:18.647Z,8.42
2024-02-23T18:41:45.424Z,8.30
2024-02-23T18:44:14.131Z,8.13
2024-02-23T18:46:41.057Z,8.16
2024-02-23T18:49:07.907Z,8.14
2024-02-23T18:51:34.699Z,8.02
2024-02-23T18:54:01.472Z,8.06
2024-02-23T18:56:28.359Z,7.99
2024-02-23T18:58:56.039Z,8.05
2024-02-23T19:01:22.724Z,8.06
2024-02-23T19:03:49.423Z,8.09
2024-02-23T19:06:16.338Z,8.05
2024-02-23T19:08:43.171Z,8.02
2024-02-23T19:11:10.247Z,8.08
2024-02-23T19:13:37.043Z,8.08
2024-02-23T19:16:03.875Z,8.06
2024-02-23T19:18:30.736Z,8.08
2024-02-23T19:20:57.542Z,8.16
2024-02-23T19:23:24.258Z,8.25
2024-02-23T19:25:50.966Z,8.11
2024-02-23T19:28:17.699Z,7.98
2024-02-23T19:30:45.611Z,8.04
2024-02-23T19:33:12.473Z,7.95
2024-02-23T19:35:39.499Z,8.07
2024-02-23T19:38:06.463Z,8.10
2024-02-23T19:40:33.234Z,8.02
2024-02-23T19:43:00.016Z,7.86
2024-02-23T19:45:27.207Z,8.02
2024-02-23T19:47:54.413Z,8.18
2024-02-23T19:50:22.554Z,8.28
2024-02-23T19:52:49.376Z,7.97
2024-02-23T19:55:16.224Z,7.71
2024-02-23T19:57:42.894Z,7.44
2024-02-23T20:00:10.408Z,7.56
2024-02-23T20:02:37.424Z,7.64
2024-02-23T20:05:04.821Z,7.70
2024-02-23T20:07:31.628Z,7.70
2024-02-23T20:10:00.940Z,7.61
2024-02-23T20:12:29.388Z,7.72
2024-02-23T20:14:56.450Z,7.80
2024-02-23T20:17:23.923Z,7.92
2024-02-23T20:19:50.656Z,7.98
2024-02-23T20:22:20.318Z,7.59
2024-02-23T20:24:47.223Z,7.39
2024-02-23T20:27:13.943Z,7.66
2024-02-23T20:29:40.759Z,7.60
2024-02-23T20:32:15.791Z,7.80
2024-02-23T20:34:49.016Z,8.05
2024-02-23T20:37:15.764Z,7.98
2024-02-23T20:39:42.460Z,7.75
2024-02-23T20:42:10.849Z,7.84
2024-02-23T20:44:37.669Z,7.94
2024-02-23T20:47:04.658Z,8.01
2024-02-23T20:49:34.165Z,8.03
2024-02-23T20:52:01.056Z,8.06
2024-02-23T20:54:28.907Z,8.07
2024-02-23T20:56:55.562Z,8.08
2024-02-23T20:59:22.387Z,8.07
2024-02-23T21:01:49.029Z,7.74
2024-02-23T21:04:15.801Z,7.64
2024-02-23T21:06:42.711Z,7.40
2024-02-23T21:09:10.456Z,7.34
2024-02-23T21:11:37.165Z,7.59
2024-02-23T21:14:04.030Z,7.70
2024-02-23T21:16:30.715Z,7.72
2024-02-23T21:18:57.489Z,7.70
2024-02-23T21:21:24.320Z,7.80
2024-02-23T21:23:51.057Z,7.66
2024-02-23T21:26:18.224Z,7.39
2024-02-23T21:28:45.067Z,7.33
2024-02-23T21:31:14.483Z,7.49
2024-02-23T21:33:41.266Z,7.48
2024-02-23T21:36:08.201Z,7.55
2024-02-23T21:38:36.004Z,7.62
2024-02-23T21:41:03.282Z,7.71
2024-02-23T21:43:31.379Z,7.65
2024-02-23T21:45:58.122Z,7.62
2024-02-23T21:48:24.946Z,7.59
2024-02-23T21:50:51.920Z,7.50
2024-02-23T21:53:18.757Z,7.40
2024-02-23T21:55:45.594Z,7.52
2024-02-23T21:58:12.415Z,7.56
2024-02-23T22:00:39.149Z,7.63
2024-02-23T22:03:06.638Z,7.69
2024-02-23T22:05:33.659Z,7.68
2024-02-23T22:08:00.466Z,7.39
2024-02-23T22:10:27.208Z,7.34
2024-02-23T22:12:53.909Z,7.34
2024-02-23T22:15:21.466Z,7.39
2024-02-23T22:17:48.477Z,7.33
2024-02-23T22:20:15.673Z,7.39
2024-02-23T22:22:42.466Z,7.44
2024-02-23T22:25:09.592Z,7.17
2024-02-23T22:27:36.856Z,7.05
2024-02-23T22:30:09.595Z,7.03
2024-02-23T22:32:38.345Z,7.04
2024-02-23T22:35:05.955Z,6.89
2024-02-23T22:37:34.117Z,6.76
2024-02-23T22:40:00.920Z,6.81
2024-02-23T22:42:27.900Z,6.90
2024-02-23T22:44:54.773Z,6.98
2024-02-23T22:47:21.641Z,7.06
2024-02-23T22:49:48.442Z,7.19
2024-02-23T22:52:16.942Z,7.27
2024-02-23T22:54:43.710Z,7.35
2024-02-23T22:57:10.733Z,7.17
2024-02-23T22:59:37.951Z,6.86
2024-02-23T23:02:04.963Z,6.89
2024-02-23T23:04:31.792Z,6.94
2024-02-23T23:06:58.607Z,6.75
2024-02-23T23:09:25.474Z,6.82
2024-02-23T23:11:52.339Z,6.93
2024-02-23T23:14:19.187Z,7.03
2024-02-23T23:16:45.869Z,7.10
2024-02-23T23:19:12.585Z,7.12
2024-02-23T23:21:39.460Z,7.13
2024-02-23T23:24:06.742Z,7.16
2024-02-23T23:26:34.042Z,7.17
2024-02-23T23:29:00.797Z,7.09
2024-02-23T23:31:29.237Z,7.08
2024-02-23T23:33:57.037Z,7.15
2024-02-23T23:36:23.795Z,7.18
2024-02-23T23:38:50.564Z,7.19
2024-02-23T23:41:17.437Z,7.19
2024-02-23T23:43:44.213Z,7.13
2024-02-23T23:46:10.925Z,6.94
2024-02-23T23:48:37.764Z,6.77
2024-02-23T23:51:04.888Z,6.78
2024-02-23T23:53:31.706Z,6.83
2024-02-23T23:59:06.238Z,7.02
